sensor_id;sensor_type;location;lat;lon;timestamp;pressure;altitude;pressure_sealevel;temperature;humidity
38022;BME280;23832;43.216;27.946;2022-11-20T00:00:30;100509.56;;;20.81;100.00
38022;BME280;23832;43.216;27.946;2022-11-20T00:02:32;100512.25;;;20.81;100.00
38022;BME280;23832;43.216;27.946;2022-11-20T00:04:35;100509.56;;;20.81;100.00
38022;BME280;23832;43.216;27.946;2022-11-20T00:06:37;100507.16;;;20.79;100.00
38022;BME280;23832;43.216;27.946;2022-11-20T00:08:39;100506.09;;;20.80;100.00
38022;BME280;23832;43.216;27.946;2022-11-20T00:10:41;100508.78;;;20.80;100.00
38022;BME280;23832;43.216;27.946;2022-11-20T00:12:42;100510.38;;;20.81;100.00
38022;BME280;23832;43.216;27.946;2022-11-20T00:14:44;100502.59;;;20.80;100.00
38022;BME280;23832;43.216;27.946;2022-11-20T00:16:46;100502.59;;;20.80;100.00
38022;BME280;23832;43.216;27.946;2022-11-20T00:18:48;100509.25;;;20.77;100.00
38022;BME280;23832;43.216;27.946;2022-11-20T00:20:52;100497.97;;;20.75;100.00
38022;BME280;23832;43.216;27.946;2022-11-20T00:22:54;100492.03;;;20.73;100.00
38022;BME280;23832;43.216;27.946;2022-11-20T00:24:56;100504.06;;;20.71;100.00
38022;BME280;23832;43.216;27.946;2022-11-20T00:26:58;100490.09;;;20.68;100.00
38022;BME280;23832;43.216;27.946;2022-11-20T00:29:00;100498.38;;;20.67;100.00
38022;BME280;23832;43.216;27.946;2022-11-20T00:31:02;100501.28;;;20.65;100.00
38022;BME280;23832;43.216;27.946;2022-11-20T00:33:04;100491.88;;;20.63;100.00
38022;BME280;23832;43.216;27.946;2022-11-20T00:35:06;100495.59;;;20.62;100.00
38022;BME280;23832;43.216;27.946;2022-11-20T00:37:09;100494.00;;;20.61;100.00
38022;BME280;23832;43.216;27.946;2022-11-20T00:39:11;100494.44;;;20.58;100.00
38022;BME280;23832;43.216;27.946;2022-11-20T00:41:14;100496.56;;;20.56;100.00
38022;BME280;23832;43.216;27.946;2022-11-20T00:43:15;100494.94;;;20.55;100.00
38022;BME280;23832;43.216;27.946;2022-11-20T00:45:16;100498.69;;;20.54;100.00
38022;BME280;23832;43.216;27.946;2022-11-20T00:47:18;100509.63;;;20.52;100.00
38022;BME280;23832;43.216;27.946;2022-11-20T00:49:20;100499.19;;;20.51;100.00
38022;BME280;23832;43.216;27.946;2022-11-20T00:51:22;100502.91;;;20.50;100.00
38022;BME280;23832;43.216;27.946;2022-11-20T00:53:25;100503.94;;;20.49;100.00
38022;BME280;23832;43.216;27.946;2022-11-20T00:55:27;100502.31;;;20.48;100.00
38022;BME280;23832;43.216;27.946;2022-11-20T00:57:29;100510.34;;;20.48;100.00
38022;BME280;23832;43.216;27.946;2022-11-20T00:59:30;100509.53;;;20.47;100.00
38022;BME280;23832;43.216;27.946;2022-11-20T01:01:32;100508.72;;;20.47;100.00
38022;BME280;23832;43.216;27.946;2022-11-20T01:03:35;100506.06;;;20.47;100.00
38022;BME280;23832;43.216;27.946;2022-11-20T01:05:37;100512.22;;;20.47;100.00
38022;BME280;23832;43.216;27.946;2022-11-20T01:07:39;100508.72;;;20.47;100.00
38022;BME280;23832;43.216;27.946;2022-11-20T01:09:42;100504.44;;;20.46;100.00
38022;BME280;23832;43.216;27.946;2022-11-20T01:11:44;100508.72;;;20.47;100.00
38022;BME280;23832;43.216;27.946;2022-11-20T01:13:46;100514.88;;;20.47;100.00
38022;BME280;23832;43.216;27.946;2022-11-20T01:15:49;100513.84;;;20.48;100.00
38022;BME280;23832;43.216;27.946;2022-11-20T01:17:50;100507.22;;;20.51;100.00
38022;BME280;23832;43.216;27.946;2022-11-20T01:19:52;100502.41;;;20.53;100.00
38022;BME280;23832;43.216;27.946;2022-11-20T01:21:54;100505.66;;;20.55;100.00
38022;BME280;23832;43.216;27.946;2022-11-20T01:23:56;100506.00;;;20.58;100.00
38022;BME280;23832;43.216;27.946;2022-11-20T01:26:01;100503.88;;;20.60;100.00
38022;BME280;23832;43.216;27.946;2022-11-20T01:28:03;100501.53;;;20.64;100.00
38022;BME280;23832;43.216;27.946;2022-11-20T01:30:06;100505.56;;;20.66;100.00
38022;BME280;23832;43.216;27.946;2022-11-20T01:32:07;100504.06;;;20.71;100.00
38022;BME280;23832;43.216;27.946;2022-11-20T01:34:10;100499.00;;;20.74;100.00
38022;BME280;23832;43.216;27.946;2022-11-20T01:36:13;100499.34;;;20.78;100.00
38022;BME280;23832;43.216;27.946;2022-11-20T01:38:16;100508.78;;;20.80;100.00
38022;BME280;23832;43.216;27.946;2022-11-20T01:40:17;100501.28;;;20.82;100.00
38022;BME280;23832;43.216;27.946;2022-11-20T01:42:21;100507.47;;;20.83;100.00
38022;BME280;23832;43.216;27.946;2022-11-20T01:44:43;100500.81;;;20.85;100.00
38022;BME280;23832;43.216;27.946;2022-11-20T01:46:49;100499.78;;;20.86;100.00
38022;BME280;23832;43.216;27.946;2022-11-20T01:48:54;100497.41;;;20.90;100.00
38022;BME280;23832;43.216;27.946;2022-11-20T01:50:57;100494.47;;;20.91;100.00
38022;BME280;23832;43.216;27.946;2022-11-20T01:53:00;100492.34;;;20.93;100.00
38022;BME280;23832;43.216;27.946;2022-11-20T01:55:04;100494.00;;;20.94;100.00
38022;BME280;23832;43.216;27.946;2022-11-20T01:57:07;100495.63;;;20.95;100.00
38022;BME280;23832;43.216;27.946;2022-11-20T01:59:13;100498.06;;;20.97;100.00
38022;BME280;23832;43.216;27.946;2022-11-20T02:01:17;100490.56;;;20.99;100.00
38022;BME280;23832;43.216;27.946;2022-11-20T02:03:19;100497.31;;;21.02;100.00
38022;BME280;23832;43.216;27.946;2022-11-20T02:05:22;100492.53;;;21.04;100.00
38022;BME280;23832;43.216;27.946;2022-11-20T02:07:25;100497.41;;;21.07;100.00
38022;BME280;23832;43.216;27.946;2022-11-20T02:09:28;100489.91;;;21.09;100.00
38022;BME280;23832;43.216;27.946;2022-11-20T02:11:30;100474.16;;;21.12;100.00
38022;BME280;23832;43.216;27.946;2022-11-20T02:13:32;100481.72;;;21.15;100.00
38022;BME280;23832;43.216;27.946;2022-11-20T02:15:47;100476.91;;;21.17;100.00
38022;BME280;23832;43.216;27.946;2022-11-20T02:17:50;100473.97;;;21.19;100.00
38022;BME280;23832;43.216;27.946;2022-11-20T02:19:52;100485.28;;;21.21;100.00
38022;BME280;23832;43.216;27.946;2022-11-20T02:21:56;100472.69;;;21.21;100.00
38022;BME280;23832;43.216;27.946;2022-11-20T02:24:02;100477.53;;;21.24;100.00
38022;BME280;23832;43.216;27.946;2022-11-20T02:26:05;100474.63;;;21.26;100.00
38022;BME280;23832;43.216;27.946;2022-11-20T02:28:08;100484.88;;;21.29;100.00
38022;BME280;23832;43.216;27.946;2022-11-20T02:30:11;100484.41;;;21.32;100.00
38022;BME280;23832;43.216;27.946;2022-11-20T02:32:17;100481.47;;;21.34;100.00
38022;BME280;23832;43.216;27.946;2022-11-20T02:34:19;100477.72;;;21.35;100.00
38022;BME280;23832;43.216;27.946;2022-11-20T02:36:21;100479.34;;;21.36;100.00
38022;BME280;23832;43.216;27.946;2022-11-20T02:38:23;100481.22;;;21.35;100.00
38022;BME280;23832;43.216;27.946;2022-11-20T02:40:27;100476.66;;;21.36;100.00
38022;BME280;23832;43.216;27.946;2022-11-20T02:42:28;100476.91;;;21.34;100.00
38022;BME280;23832;43.216;27.946;2022-11-20T02:44:30;100477.72;;;21.35;100.00
38022;BME280;23832;43.216;27.946;2022-11-20T02:46:32;100474.22;;;21.34;100.00
38022;BME280;23832;43.216;27.946;2022-11-20T02:48:35;100475.03;;;21.35;100.00
38022;BME280;23832;43.216;27.946;2022-11-20T02:50:37;100464.56;;;21.33;100.00
38022;BME280;23832;43.216;27.946;2022-11-20T02:52:40;100466.19;;;21.34;100.00
38022;BME280;23832;43.216;27.946;2022-11-20T02:54:42;100452.78;;;21.34;100.00
38022;BME280;23832;43.216;27.946;2022-11-20T02:56:45;100450.09;;;21.34;100.00
38022;BME280;23832;43.216;27.946;2022-11-20T02:58:47;100447.41;;;21.34;100.00
38022;BME280;23832;43.216;27.946;2022-11-20T03:00:49;100452.78;;;21.34;100.00
38022;BME280;23832;43.216;27.946;2022-11-20T03:02:50;100457.06;;;21.35;100.00
38022;BME280;23832;43.216;27.946;2022-11-20T03:04:52;100451.72;;;21.35;100.00
38022;BME280;23832;43.216;27.946;2022-11-20T03:06:54;100457.88;;;21.36;100.00
38022;BME280;23832;43.216;27.946;2022-11-20T03:08:56;100463.81;;;21.38;100.00
38022;BME280;23832;43.216;27.946;2022-11-20T03:11:01;100458.22;;;21.39;100.00
38022;BME280;23832;43.216;27.946;2022-11-20T03:13:04;100458.22;;;21.39;100.00
38022;BME280;23832;43.216;27.946;2022-11-20T03:15:06;100449.66;;;21.42;100.00
38022;BME280;23832;43.216;27.946;2022-11-20T03:17:08;100460.94;;;21.44;100.00
38022;BME280;23832;43.216;27.946;2022-11-20T03:19:11;100451.84;;;21.45;100.00
38022;BME280;23832;43.216;27.946;2022-11-20T03:21:13;100444.59;;;21.46;100.00
38022;BME280;23832;43.216;27.946;2022-11-20T03:23:15;100441.66;;;21.47;100.00
38022;BME280;23832;43.216;27.946;2022-11-20T03:25:17;100433.63;;;21.47;100.00
38022;BME280;23832;43.216;27.946;2022-11-20T03:27:19;100435.28;;;21.48;100.00
38022;BME280;23832;43.216;27.946;2022-11-20T03:29:22;100425.34;;;21.49;100.00
38022;BME280;23832;43.216;27.946;2022-11-20T03:31:25;100432.59;;;21.48;100.00
38022;BME280;23832;43.216;27.946;2022-11-20T03:33:27;100433.13;;;21.50;100.00
38022;BME280;23832;43.216;27.946;2022-11-20T03:35:29;100433.13;;;21.50;100.00
38022;BME280;23832;43.216;27.946;2022-11-20T03:37:31;100423.22;;;21.51;100.00
38022;BME280;23832;43.216;27.946;2022-11-20T03:39:33;100426.72;;;21.51;100.00
38022;BME280;23832;43.216;27.946;2022-11-20T03:41:35;100435.81;;;21.50;100.00
38022;BME280;23832;43.216;27.946;2022-11-20T03:43:37;100428.59;;;21.51;100.00
38022;BME280;23832;43.216;27.946;2022-11-20T03:45:41;100432.34;;;21.50;100.00
38022;BME280;23832;43.216;27.946;2022-11-20T03:47:43;100431.28;;;21.51;100.00
38022;BME280;23832;43.216;27.946;2022-11-20T03:49:45;100435.81;;;21.50;100.00
38022;BME280;23832;43.216;27.946;2022-11-20T03:51:46;100441.44;;;21.49;100.00
38022;BME280;23832;43.216;27.946;2022-11-20T03:53:49;100432.59;;;21.48;100.00
38022;BME280;23832;43.216;27.946;2022-11-20T03:55:51;100422.34;;;21.45;100.00
38022;BME280;23832;43.216;27.946;2022-11-20T03:57:52;100419.66;;;21.45;100.00
38022;BME280;23832;43.216;27.946;2022-11-20T03:59:54;100426.09;;;21.44;100.00
38022;BME280;23832;43.216;27.946;2022-11-20T04:01:57;100427.16;;;21.43;100.00
38022;BME280;23832;43.216;27.946;2022-11-20T04:03:59;100417.75;;;21.41;100.00
38022;BME280;23832;43.216;27.946;2022-11-20T04:06:02;100423.09;;;21.41;100.00
38022;BME280;23832;43.216;27.946;2022-11-20T04:08:04;100407.25;;;21.39;100.00
38022;BME280;23832;43.216;27.946;2022-11-20T04:10:06;100405.06;;;21.36;100.00
38022;BME280;23832;43.216;27.946;2022-11-20T04:12:08;100405.06;;;21.36;100.00
38022;BME280;23832;43.216;27.946;2022-11-20T04:14:11;100408.00;;;21.35;100.00
38022;BME280;23832;43.216;27.946;2022-11-20T04:16:14;100410.44;;;21.36;100.00
38022;BME280;23832;43.216;27.946;2022-11-20T04:18:17;100406.13;;;21.35;100.00
38022;BME280;23832;43.216;27.946;2022-11-20T04:20:19;100409.63;;;21.36;100.00
38022;BME280;23832;43.216;27.946;2022-11-20T04:22:21;100413.09;;;21.36;100.00
38022;BME280;23832;43.216;27.946;2022-11-20T04:24:23;100410.44;;;21.36;100.00
38022;BME280;23832;43.216;27.946;2022-11-20T04:26:26;100411.22;;;21.37;100.00
38022;BME280;23832;43.216;27.946;2022-11-20T04:28:28;100403.19;;;21.37;100.00
38022;BME280;23832;43.216;27.946;2022-11-20T04:30:30;100401.31;;;21.37;100.00
38022;BME280;23832;43.216;27.946;2022-11-20T04:32:32;100400.25;;;21.38;100.00
38022;BME280;23832;43.216;27.946;2022-11-20T04:34:36;100406.19;;;21.40;100.00
38022;BME280;23832;43.216;27.946;2022-11-20T04:36:38;100390.13;;;21.40;100.00
38022;BME280;23832;43.216;27.946;2022-11-20T04:38:39;100401.31;;;21.37;100.00
38022;BME280;23832;43.216;27.946;2022-11-20T04:40:41;100411.22;;;21.37;100.00
38022;BME280;23832;43.216;27.946;2022-11-20T04:42:43;100413.91;;;21.37;100.00
38022;BME280;23832;43.216;27.946;2022-11-20T04:44:45;100403.78;;;21.39;100.00
38022;BME280;23832;43.216;27.946;2022-11-20T04:46:46;100402.94;;;21.38;100.00
38022;BME280;23832;43.216;27.946;2022-11-20T04:48:48;100404.59;;;21.39;100.00
38022;BME280;23832;43.216;27.946;2022-11-20T04:50:52;100395.47;;;21.40;100.00
38022;BME280;23832;43.216;27.946;2022-11-20T04:52:54;100381.81;;;21.42;100.00
38022;BME280;23832;43.216;27.946;2022-11-20T04:54:55;100398.97;;;21.41;100.00
38022;BME280;23832;43.216;27.946;2022-11-20T04:56:57;100401.91;;;21.39;100.00
38022;BME280;23832;43.216;27.946;2022-11-20T04:59:00;100393.06;;;21.39;100.00
38022;BME280;23832;43.216;27.946;2022-11-20T05:01:02;100406.47;;;21.39;100.00
38022;BME280;23832;43.216;27.946;2022-11-20T05:03:04;100410.97;;;21.38;100.00
38022;BME280;23832;43.216;27.946;2022-11-20T05:05:06;100410.44;;;21.36;100.00
38022;BME280;23832;43.216;27.946;2022-11-20T05:07:09;100405.06;;;21.36;100.00
38022;BME280;23832;43.216;27.946;2022-11-20T05:09:11;100404.25;;;21.36;100.00
38022;BME280;23832;43.216;27.946;2022-11-20T05:11:13;100406.13;;;21.35;100.00
38022;BME280;23832;43.216;27.946;2022-11-20T05:13:15;100391.09;;;21.34;100.00
38022;BME280;23832;43.216;27.946;2022-11-20T05:15:17;100382.00;;;21.35;100.00
38022;BME280;23832;43.216;27.946;2022-11-20T05:17:19;100384.13;;;21.33;100.00
38022;BME280;23832;43.216;27.946;2022-11-20T05:19:21;100384.13;;;21.33;100.00
38022;BME280;23832;43.216;27.946;2022-11-20T05:21:23;100382.00;;;21.35;100.00
38022;BME280;23832;43.216;27.946;2022-11-20T05:23:26;100339.63;;;21.15;100.00
38022;BME280;23832;43.216;27.946;2022-11-20T05:25:28;100382.00;;;21.35;100.00
38022;BME280;23832;43.216;27.946;2022-11-20T05:27:30;100394.34;;;21.36;100.00
38022;BME280;23832;43.216;27.946;2022-11-20T05:29:32;100385.47;;;21.36;100.00
38022;BME280;23832;43.216;27.946;2022-11-20T05:31:34;100400.50;;;21.37;100.00
38022;BME280;23832;43.216;27.946;2022-11-20T05:33:36;100400.50;;;21.37;100.00
38022;BME280;23832;43.216;27.946;2022-11-20T05:35:38;100408.28;;;21.38;100.00
38022;BME280;23832;43.216;27.946;2022-11-20T05:37:40;100408.28;;;21.38;100.00
38022;BME280;23832;43.216;27.946;2022-11-20T05:39:43;100426.59;;;21.41;100.00
38022;BME280;23832;43.216;27.946;2022-11-20T05:41:45;100418.28;;;21.43;100.00
38022;BME280;23832;43.216;27.946;2022-11-20T05:44:09;100415.63;;;21.43;100.00
38022;BME280;23832;43.216;27.946;2022-11-20T05:46:12;100424.47;;;21.43;100.00
38022;BME280;23832;43.216;27.946;2022-11-20T05:48:14;100426.09;;;21.44;100.00
38022;BME280;23832;43.216;27.946;2022-11-20T05:50:16;100430.63;;;21.44;100.00
38022;BME280;23832;43.216;27.946;2022-11-20T05:52:18;100432.00;;;21.46;100.00
38022;BME280;23832;43.216;27.946;2022-11-20T05:54:20;100434.47;;;21.48;100.00
38022;BME280;23832;43.216;27.946;2022-11-20T05:56:23;100434.19;;;21.49;100.00
38022;BME280;23832;43.216;27.946;2022-11-20T05:58:24;100440.94;;;21.52;100.00
38022;BME280;23832;43.216;27.946;2022-11-20T06:00:26;100431.00;;;21.52;100.00
38022;BME280;23832;43.216;27.946;2022-11-20T06:02:28;100427.25;;;21.53;100.00
38022;BME280;23832;43.216;27.946;2022-11-20T06:04:29;100427.59;;;21.57;100.00
38022;BME280;23832;43.216;27.946;2022-11-20T06:06:31;100436.44;;;21.58;100.00
38022;BME280;23832;43.216;27.946;2022-11-20T06:08:33;100420.09;;;21.59;100.00
38022;BME280;23832;43.216;27.946;2022-11-20T06:10:35;100416.09;;;21.62;100.00
38022;BME280;23832;43.216;27.946;2022-11-20T06:12:38;100431.13;;;21.63;100.00
38022;BME280;23832;43.216;27.946;2022-11-20T06:14:40;100433.34;;;21.66;100.00
38022;BME280;23832;43.216;27.946;2022-11-20T06:16:42;100429.31;;;21.68;100.00
38022;BME280;23832;43.216;27.946;2022-11-20T06:18:43;100430.13;;;21.69;100.00
38022;BME280;23832;43.216;27.946;2022-11-20T06:20:45;100426.94;;;21.72;100.00
38022;BME280;23832;43.216;27.946;2022-11-20T06:22:47;100431.00;;;21.74;100.00
38022;BME280;23832;43.216;27.946;2022-11-20T06:24:49;100431.56;;;21.76;100.00
38022;BME280;23832;43.216;27.946;2022-11-20T06:26:51;100431.88;;;21.80;100.00
38022;BME280;23832;43.216;27.946;2022-11-20T06:28:54;100419.81;;;21.82;100.00
38022;BME280;23832;43.216;27.946;2022-11-20T06:30:57;100435.69;;;21.84;100.00
38022;BME280;23832;43.216;27.946;2022-11-20T06:32:58;100436.22;;;21.86;100.00
38022;BME280;23832;43.216;27.946;2022-11-20T06:35:00;100428.72;;;21.88;100.00
38022;BME280;23832;43.216;27.946;2022-11-20T06:37:02;100431.16;;;21.90;100.00
38022;BME280;23832;43.216;27.946;2022-11-20T06:39:03;100434.16;;;21.93;100.00
38022;BME280;23832;43.216;27.946;2022-11-20T06:41:05;100434.75;;;22.00;100.00
38022;BME280;23832;43.216;27.946;2022-11-20T06:43:07;100431.38;;;22.10;100.00
38022;BME280;23832;43.216;27.946;2022-11-20T06:45:11;100430.94;;;22.18;100.00
38022;BME280;23832;43.216;27.946;2022-11-20T06:47:13;100424.28;;;22.26;100.00
38022;BME280;23832;43.216;27.946;2022-11-20T06:49:15;100428.09;;;22.30;100.00
38022;BME280;23832;43.216;27.946;2022-11-20T06:51:16;100428.13;;;22.35;100.00
38022;BME280;23832;43.216;27.946;2022-11-20T06:53:18;100435.19;;;22.41;100.00
38022;BME280;23832;43.216;27.946;2022-11-20T06:55:20;100430.66;;;22.47;100.00
38022;BME280;23832;43.216;27.946;2022-11-20T06:57:22;100436.06;;;22.52;100.00
38022;BME280;23832;43.216;27.946;2022-11-20T06:59:24;100426.69;;;22.54;100.00
38022;BME280;23832;43.216;27.946;2022-11-20T07:01:27;100420.81;;;22.57;100.00
38022;BME280;23832;43.216;27.946;2022-11-20T07:03:29;100420.84;;;22.62;100.00
38022;BME280;23832;43.216;27.946;2022-11-20T07:05:31;100436.47;;;22.65;100.00
38022;BME280;23832;43.216;27.946;2022-11-20T07:07:33;100434.31;;;22.67;100.00
38022;BME280;23832;43.216;27.946;2022-11-20T07:09:35;100428.94;;;22.67;100.00
38022;BME280;23832;43.216;27.946;2022-11-20T07:11:37;100433.25;;;22.69;100.00
38022;BME280;23832;43.216;27.946;2022-11-20T07:13:38;100424.66;;;22.72;100.00
38022;BME280;23832;43.216;27.946;2022-11-20T07:15:40;100428.97;;;22.73;100.00
38022;BME280;23832;43.216;27.946;2022-11-20T07:17:43;100428.16;;;22.72;100.00
38022;BME280;23832;43.216;27.946;2022-11-20T07:19:45;100429.50;;;22.70;100.00
38022;BME280;23832;43.216;27.946;2022-11-20T07:21:47;100426.25;;;22.67;100.00
38022;BME280;23832;43.216;27.946;2022-11-20T07:23:48;100424.91;;;22.65;100.00
38022;BME280;23832;43.216;27.946;2022-11-20T07:25:50;100419.75;;;22.63;100.00
38022;BME280;23832;43.216;27.946;2022-11-20T07:27:52;100429.69;;;22.63;100.00
38022;BME280;23832;43.216;27.946;2022-11-20T07:29:54;100431.84;;;22.61;100.00
38022;BME280;23832;43.216;27.946;2022-11-20T07:31:55;100421.91;;;22.61;100.00
38022;BME280;23832;43.216;27.946;2022-11-20T07:33:59;100423.53;;;22.62;100.00
38022;BME280;23832;43.216;27.946;2022-11-20T07:36:01;100425.94;;;22.64;100.00
38022;BME280;23832;43.216;27.946;2022-11-20T07:38:03;100419.28;;;22.66;100.00
38022;BME280;23832;43.216;27.946;2022-11-20T07:40:04;100424.94;;;22.70;100.00
38022;BME280;23832;43.216;27.946;2022-11-20T07:42:06;100441.09;;;22.75;100.00
38022;BME280;23832;43.216;27.946;2022-11-20T07:44:09;100429.00;;;22.78;100.00
38022;BME280;23832;43.216;27.946;2022-11-20T07:46:10;100425.00;;;22.80;100.00
38022;BME280;23832;43.216;27.946;2022-11-20T07:48:12;100423.69;;;22.83;100.00
38022;BME280;23832;43.216;27.946;2022-11-20T07:50:15;100419.69;;;22.85;100.00
38022;BME280;23832;43.216;27.946;2022-11-20T07:52:17;100414.06;;;22.87;100.00
38022;BME280;23832;43.216;27.946;2022-11-20T07:54:18;100419.16;;;22.88;100.00
38022;BME280;23832;43.216;27.946;2022-11-20T07:56:20;100419.22;;;22.93;100.00
38022;BME280;23832;43.216;27.946;2022-11-20T07:58:22;100445.81;;;22.95;100.00
38022;BME280;23832;43.216;27.946;2022-11-20T08:00:23;100420.56;;;22.96;100.00
38022;BME280;23832;43.216;27.946;2022-11-20T08:02:25;100417.88;;;22.96;100.00
38022;BME280;23832;43.216;27.946;2022-11-20T08:04:27;100417.59;;;22.98;100.00
38022;BME280;23832;43.216;27.946;2022-11-20T08:06:30;100424.88;;;22.97;100.00
38022;BME280;23832;43.216;27.946;2022-11-20T08:08:32;100427.03;;;23.00;100.00
38022;BME280;23832;43.216;27.946;2022-11-20T08:10:34;100432.97;;;23.02;100.00
38022;BME280;23832;43.216;27.946;2022-11-20T08:12:36;100417.94;;;23.06;100.00
38022;BME280;23832;43.216;27.946;2022-11-20T08:14:55;100425.22;;;23.11;100.00
38022;BME280;23832;43.216;27.946;2022-11-20T08:16:58;100421.19;;;23.13;100.00
38022;BME280;23832;43.216;27.946;2022-11-20T08:19:00;100416.38;;;23.15;100.00
38022;BME280;23832;43.216;27.946;2022-11-20T08:21:02;100419.59;;;23.17;100.00
38022;BME280;23832;43.216;27.946;2022-11-20T08:23:06;100425.53;;;23.19;100.00
38022;BME280;23832;43.216;27.946;2022-11-20T08:25:08;100424.47;;;23.20;100.00
38022;BME280;23832;43.216;27.946;2022-11-20T08:27:10;100419.91;;;23.21;100.00
38022;BME280;23832;43.216;27.946;2022-11-20T08:29:12;100426.88;;;23.22;100.00
38022;BME280;23832;43.216;27.946;2022-11-20T08:31:14;100420.97;;;23.20;100.00
38022;BME280;23832;43.216;27.946;2022-11-20T08:33:16;100422.84;;;23.19;100.00
38022;BME280;23832;43.216;27.946;2022-11-20T08:35:18;100422.03;;;23.19;100.00
38022;BME280;23832;43.216;27.946;2022-11-20T08:37:19;100427.97;;;23.21;100.00
38022;BME280;23832;43.216;27.946;2022-11-20T08:39:22;100421.78;;;23.20;100.00
38022;BME280;23832;43.216;27.946;2022-11-20T08:41:24;100422.84;;;23.19;100.00
38022;BME280;23832;43.216;27.946;2022-11-20T08:43:26;100415.59;;;23.20;100.00
38022;BME280;23832;43.216;27.946;2022-11-20T08:45:28;100413.72;;;23.20;100.00
38022;BME280;23832;43.216;27.946;2022-11-20T08:47:30;100410.22;;;23.20;100.00
38022;BME280;23832;43.216;27.946;2022-11-20T08:49:31;100407.53;;;23.20;100.00
38022;BME280;23832;43.216;27.946;2022-11-20T08:51:34;100396.78;;;23.20;100.00
38022;BME280;23832;43.216;27.946;2022-11-20T08:53:36;100406.44;;;23.21;100.00
38022;BME280;23832;43.216;27.946;2022-11-20T08:55:39;100414.25;;;23.22;100.00
38022;BME280;23832;43.216;27.946;2022-11-20T08:57:40;100410.50;;;23.23;100.00
38022;BME280;23832;43.216;27.946;2022-11-20T08:59:42;100410.22;;;23.25;100.00
38022;BME280;23832;43.216;27.946;2022-11-20T09:01:44;100411.03;;;23.26;100.00
38022;BME280;23832;43.216;27.946;2022-11-20T09:03:46;100407.25;;;23.27;100.00
38022;BME280;23832;43.216;27.946;2022-11-20T09:05:48;100394.63;;;23.27;100.00
38022;BME280;23832;43.216;27.946;2022-11-20T09:07:50;100396.50;;;23.27;100.00
38022;BME280;23832;43.216;27.946;2022-11-20T09:09:52;100391.94;;;23.27;100.00
38022;BME280;23832;43.216;27.946;2022-11-20T09:11:55;100403.53;;;23.28;100.00
38022;BME280;23832;43.216;27.946;2022-11-20T09:13:57;100387.63;;;23.26;100.00
38022;BME280;23832;43.216;27.946;2022-11-20T09:16:00;100383.88;;;23.27;100.00
38022;BME280;23832;43.216;27.946;2022-11-20T09:18:02;100389.81;;;23.29;100.00
38022;BME280;23832;43.216;27.946;2022-11-20T09:20:05;100386.84;;;23.31;100.00
38022;BME280;23832;43.216;27.946;2022-11-20T09:22:06;100398.69;;;23.30;100.00
38022;BME280;23832;43.216;27.946;2022-11-20T09:24:08;100392.50;;;23.29;100.00
38022;BME280;23832;43.216;27.946;2022-11-20T09:26:10;100386.03;;;23.30;100.00
38022;BME280;23832;43.216;27.946;2022-11-20T09:28:14;100388.47;;;23.32;100.00
38022;BME280;23832;43.216;27.946;2022-11-20T09:30:16;100392.25;;;23.31;100.00
38022;BME280;23832;43.216;27.946;2022-11-20T09:32:18;100388.47;;;23.32;100.00
38022;BME280;23832;43.216;27.946;2022-11-20T09:34:19;100375.03;;;23.32;100.00
38022;BME280;23832;43.216;27.946;2022-11-20T09:36:21;100376.63;;;23.33;100.00
38022;BME280;23832;43.216;27.946;2022-11-20T09:38:23;100374.22;;;23.36;100.00
38022;BME280;23832;43.216;27.946;2022-11-20T09:40:25;100371.28;;;23.38;100.00
38022;BME280;23832;43.216;27.946;2022-11-20T09:42:36;100374.53;;;23.40;100.00
38022;BME280;23832;43.216;27.946;2022-11-20T09:45:00;100372.66;;;23.45;100.00
38022;BME280;23832;43.216;27.946;2022-11-20T09:47:05;100362.16;;;23.49;100.00
38022;BME280;23832;43.216;27.946;2022-11-20T09:49:14;100353.81;;;23.50;100.00
38022;BME280;23832;43.216;27.946;2022-11-20T09:51:24;100362.16;;;23.54;100.00
38022;BME280;23832;43.216;27.946;2022-11-20T09:53:30;100361.66;;;23.57;100.00
38022;BME280;23832;43.216;27.946;2022-11-20T09:55:35;100347.94;;;23.59;100.00
38022;BME280;23832;43.216;27.946;2022-11-20T09:57:37;100353.06;;;23.60;100.00
38022;BME280;23832;43.216;27.946;2022-11-20T09:59:41;100349.31;;;23.61;100.00
38022;BME280;23832;43.216;27.946;2022-11-20T10:01:45;100347.16;;;23.63;100.00
38022;BME280;23832;43.216;27.946;2022-11-20T10:03:50;100341.53;;;23.65;100.00
38022;BME280;23832;43.216;27.946;2022-11-20T10:05:54;100342.06;;;23.67;100.00
38022;BME280;23832;43.216;27.946;2022-11-20T10:07:59;100345.56;;;23.67;100.00
38022;BME280;23832;43.216;27.946;2022-11-20T10:10:03;100339.63;;;23.70;100.00
38022;BME280;23832;43.216;27.946;2022-11-20T10:12:09;100340.44;;;23.71;100.00
38022;BME280;23832;43.216;27.946;2022-11-20T10:14:16;100335.88;;;23.71;100.00
38022;BME280;23832;43.216;27.946;2022-11-20T10:16:20;100325.09;;;23.71;100.00
38022;BME280;23832;43.216;27.946;2022-11-20T10:18:33;100314.09;;;23.73;100.00
38022;BME280;23832;43.216;27.946;2022-11-20T10:20:42;100317.59;;;23.73;100.00
38022;BME280;23832;43.216;27.946;2022-11-20T10:22:49;100311.41;;;23.73;100.00
38022;BME280;23832;43.216;27.946;2022-11-20T10:24:55;100304.38;;;23.72;100.00